createdAt,value
2018-09-20T00:00:22.584Z,18.00
2018-09-20T00:02:53.268Z,18.00
2018-09-20T00:05:23.933Z,18.00
2018-09-20T00:07:54.628Z,18.00
2018-09-20T00:10:25.334Z,18.00
2018-09-20T00:12:56.039Z,18.00
2018-09-20T00:15:26.728Z,17.90
2018-09-20T00:17:57.413Z,17.90
2018-09-20T00:20:28.134Z,17.90
2018-09-20T00:22:58.813Z,17.90
2018-09-20T00:25:29.517Z,17.90
2018-09-20T00:28:00.219Z,17.80
2018-09-20T00:30:30.884Z,17.80
2018-09-20T00:33:01.588Z,17.80
2018-09-20T00:35:32.232Z,17.70
2018-09-20T00:38:02.949Z,17.70
2018-09-20T00:40:33.664Z,17.70
2018-09-20T00:43:04.377Z,17.70
2018-09-20T00:45:35.239Z,17.60
2018-09-20T00:48:06.179Z,17.60
2018-09-20T00:50:36.896Z,17.60
2018-09-20T00:53:07.674Z,17.60
2018-09-20T00:55:38.333Z,17.50
2018-09-20T00:58:09.029Z,17.50
2018-09-20T01:00:39.714Z,17.50
2018-09-20T01:03:10.376Z,17.50
2018-09-20T01:05:41.180Z,17.40
2018-09-20T01:08:11.836Z,17.40
2018-09-20T01:10:42.547Z,17.40
2018-09-20T01:13:13.214Z,17.40
2018-09-20T01:15:43.909Z,17.40
2018-09-20T01:18:14.572Z,17.40
2018-09-20T01:20:45.264Z,17.40
2018-09-20T01:23:15.938Z,17.30
2018-09-20T01:25:46.669Z,17.30
2018-09-20T01:28:17.345Z,17.30
2018-09-20T01:30:48.046Z,17.30
2018-09-20T01:33:18.744Z,17.30
2018-09-20T01:35:49.400Z,17.30
2018-09-20T01:38:20.089Z,17.20
2018-09-20T01:40:50.773Z,17.20
2018-09-20T01:43:21.456Z,17.20
2018-09-20T01:45:52.155Z,17.20
2018-09-20T01:48:22.837Z,17.20
2018-09-20T01:50:53.512Z,17.20
2018-09-20T01:53:24.221Z,17.20
2018-09-20T01:55:54.888Z,17.10
2018-09-20T01:58:25.592Z,17.10
2018-09-20T02:00:56.301Z,17.10
2018-09-20T02:03:26.996Z,17.10
2018-09-20T02:05:57.696Z,17.10
2018-09-20T02:08:28.399Z,17.10
2018-09-20T02:10:59.072Z,17.00
2018-09-20T02:13:29.777Z,17.00
2018-09-20T02:16:00.445Z,17.00
2018-09-20T02:18:31.322Z,16.90
2018-09-20T02:21:02.018Z,16.90
2018-09-20T02:23:32.749Z,16.90
2018-09-20T02:26:03.436Z,16.90
2018-09-20T02:28:34.105Z,16.90
2018-09-20T02:31:04.845Z,16.90
2018-09-20T02:33:35.518Z,16.80
2018-09-20T02:36:06.217Z,16.80
2018-09-20T02:38:36.920Z,16.80
2018-09-20T02:41:08.113Z,16.90
2018-09-20T02:43:38.954Z,16.80
2018-09-20T02:46:09.659Z,16.80
2018-09-20T02:48:40.319Z,16.80
2018-09-20T02:51:11.000Z,16.70
2018-09-20T02:53:41.663Z,16.70
2018-09-20T02:56:12.356Z,16.60
2018-09-20T02:58:43.024Z,16.60
2018-09-20T03:01:13.726Z,16.60
2018-09-20T03:03:44.409Z,16.60
2018-09-20T03:06:15.122Z,16.50
2018-09-20T03:08:45.809Z,16.50
2018-09-20T03:11:16.503Z,16.50
2018-09-20T03:13:47.174Z,16.50
2018-09-20T03:16:17.864Z,16.50
2018-09-20T03:18:48.584Z,16.50
2018-09-20T03:21:19.308Z,16.40
2018-09-20T03:23:49.997Z,16.40
2018-09-20T03:26:20.788Z,16.40
2018-09-20T03:28:51.451Z,16.40
2018-09-20T03:31:22.164Z,16.30
2018-09-20T03:33:53.123Z,16.30
2018-09-20T03:36:23.773Z,16.30
2018-09-20T03:38:54.462Z,16.30
2018-09-20T03:41:25.141Z,16.10
2018-09-20T03:43:55.845Z,16.30
2018-09-20T03:46:26.549Z,16.30
2018-09-20T03:48:57.265Z,16.20
2018-09-20T03:51:27.920Z,16.20
2018-09-20T03:53:58.685Z,16.20
2018-09-20T03:56:29.349Z,16.20
2018-09-20T03:59:00.160Z,16.20
2018-09-20T04:01:30.821Z,16.20
2018-09-20T04:04:01.734Z,16.20
2018-09-20T04:06:32.449Z,16.10
2018-09-20T04:09:03.236Z,16.10
2018-09-20T04:11:33.945Z,16.10
2018-09-20T04:14:04.656Z,16.10
2018-09-20T04:16:35.523Z,16.10
2018-09-20T04:19:06.329Z,16.10
2018-09-20T04:21:37.045Z,16.10
2018-09-20T04:24:07.722Z,16.10
2018-09-20T04:26:38.492Z,16.10
2018-09-20T04:29:09.161Z,16.10
2018-09-20T04:31:39.875Z,16.10
2018-09-20T04:34:10.737Z,16.10
2018-09-20T04:36:41.438Z,16.10
2018-09-20T04:39:12.153Z,16.20
2018-09-20T04:41:42.856Z,16.10
2018-09-20T04:44:13.549Z,16.10
2018-09-20T04:46:44.247Z,16.10
2018-09-20T04:49:14.954Z,16.10
2018-09-20T04:51:45.644Z,16.10
2018-09-20T04:54:16.309Z,16.00
2018-09-20T04:56:47.018Z,16.00
2018-09-20T04:59:17.707Z,16.00
2018-09-20T05:01:48.378Z,15.90
2018-09-20T05:04:19.080Z,15.80
2018-09-20T05:06:50.104Z,15.90
2018-09-20T05:09:54.913Z,15.90
2018-09-20T05:12:25.618Z,15.90
2018-09-20T05:14:56.308Z,15.90
2018-09-20T05:17:26.981Z,15.90
2018-09-20T05:19:57.809Z,15.90
2018-09-20T05:22:28.528Z,15.90
2018-09-20T05:24:59.195Z,15.90
2018-09-20T05:27:29.935Z,15.90
2018-09-20T05:30:00.600Z,15.90
2018-09-20T05:32:31.312Z,15.90
2018-09-20T05:35:01.989Z,15.90
2018-09-20T05:37:32.685Z,15.90
2018-09-20T05:40:03.598Z,15.90
2018-09-20T05:42:34.308Z,15.90
2018-09-20T05:45:05.405Z,15.90
2018-09-20T05:47:36.067Z,16.00
2018-09-20T05:50:07.149Z,16.00
2018-09-20T05:52:37.825Z,16.00
2018-09-20T05:55:08.532Z,16.10
2018-09-20T05:57:39.204Z,16.10
2018-09-20T06:00:10.514Z,16.10
2018-09-20T06:02:41.181Z,16.10
2018-09-20T06:05:11.886Z,16.20
2018-09-20T06:07:42.593Z,16.20
2018-09-20T06:10:13.281Z,16.20
2018-09-20T06:12:43.975Z,16.20
2018-09-20T06:15:14.880Z,16.30
2018-09-20T06:17:45.586Z,16.30
2018-09-20T06:20:16.297Z,16.30
2018-09-20T06:22:46.951Z,16.40
2018-09-20T06:25:17.928Z,16.40
2018-09-20T06:27:48.977Z,16.50
2018-09-20T06:30:20.480Z,16.50
2018-09-20T06:32:51.523Z,16.60
2018-09-20T06:35:22.704Z,16.60
2018-09-20T06:37:53.506Z,16.70
2018-09-20T06:40:24.176Z,16.70
2018-09-20T06:42:54.897Z,16.80
2018-09-20T06:45:25.560Z,16.80
2018-09-20T06:47:56.264Z,16.80
2018-09-20T06:50:27.024Z,16.90
2018-09-20T06:52:57.853Z,16.90
2018-09-20T06:55:28.655Z,17.00
2018-09-20T06:57:59.352Z,17.00
2018-09-20T07:00:30.101Z,17.10
2018-09-20T07:03:01.006Z,17.20
2018-09-20T07:05:40.692Z,17.20
2018-09-20T07:08:19.947Z,17.30
2018-09-20T07:10:55.654Z,17.40
2018-09-20T07:13:29.978Z,17.40
2018-09-20T07:16:08.608Z,17.50
2018-09-20T07:18:44.220Z,17.60
2018-09-20T07:21:18.575Z,17.70
2018-09-20T07:23:53.305Z,17.80
2018-09-20T07:26:27.026Z,17.90
2018-09-20T07:29:02.824Z,18.00
2018-09-20T07:31:37.893Z,18.10
2018-09-20T07:34:12.376Z,18.20
2018-09-20T07:36:47.502Z,18.30
2018-09-20T07:39:20.841Z,18.30
2018-09-20T07:41:59.162Z,18.40
2018-09-20T07:44:32.400Z,18.50
2018-09-20T07:47:06.654Z,18.60
2018-09-20T07:49:41.807Z,18.70
2018-09-20T07:52:14.528Z,18.80
2018-09-20T07:54:47.081Z,18.80
2018-09-20T07:57:23.839Z,19.00
2018-09-20T07:59:58.933Z,19.10
2018-09-20T08:02:33.562Z,19.20
2018-09-20T08:05:07.178Z,19.30
2018-09-20T08:07:41.728Z,19.40
2018-09-20T08:10:14.301Z,19.50
2018-09-20T08:12:47.897Z,19.60
2018-09-20T08:15:21.612Z,19.70
2018-09-20T08:17:53.575Z,19.80
2018-09-20T08:20:27.241Z,19.90
2018-09-20T08:23:01.499Z,20.00
2018-09-20T08:25:33.926Z,20.10
2018-09-20T08:28:07.520Z,20.20
2018-09-20T08:30:39.491Z,20.30
2018-09-20T08:33:11.877Z,20.40
2018-09-20T08:35:44.426Z,20.40
2018-09-20T08:38:15.993Z,20.50
2018-09-20T08:40:46.692Z,20.50
2018-09-20T08:43:17.360Z,20.70
2018-09-20T08:45:48.053Z,20.80
2018-09-20T08:48:19.245Z,20.80
2018-09-20T08:50:49.924Z,20.90
2018-09-20T08:53:21.020Z,21.00
2018-09-20T08:55:51.769Z,21.10
2018-09-20T08:58:22.437Z,21.10
2018-09-20T09:00:53.141Z,21.20
2018-09-20T09:03:24.145Z,21.30
2018-09-20T09:05:54.866Z,21.40
2018-09-20T09:08:25.787Z,21.50
2018-09-20T09:10:56.454Z,21.50
2018-09-20T09:13:33.504Z,21.60
2018-09-20T09:16:04.544Z,21.70
2018-09-20T09:18:34.956Z,21.80
2018-09-20T09:21:05.661Z,21.90
2018-09-20T09:23:36.389Z,22.00
2018-09-20T09:26:06.802Z,22.00
2018-09-20T09:28:37.285Z,22.20
2018-09-20T09:31:07.807Z,22.20
2018-09-20T09:33:38.223Z,22.20
2018-09-20T09:36:08.596Z,22.20
2018-09-20T09:38:39.020Z,22.30
2018-09-20T09:41:09.397Z,22.40
2018-09-20T09:43:39.837Z,22.50
2018-09-20T09:46:10.250Z,22.50
2018-09-20T09:48:40.653Z,22.60
2018-09-20T09:51:11.229Z,22.60
2018-09-20T09:53:41.644Z,22.60
2018-09-20T09:56:12.056Z,22.60
2018-09-20T09:58:42.440Z,22.70
2018-09-20T10:01:12.844Z,22.70
2018-09-20T10:03:43.229Z,22.70
2018-09-20T10:06:13.624Z,22.70
2018-09-20T10:08:44.050Z,22.70
2018-09-20T10:11:14.450Z,22.70
2018-09-20T10:13:44.898Z,22.70
2018-09-20T10:16:15.441Z,22.70
2018-09-20T10:18:45.848Z,22.80
2018-09-20T10:21:16.264Z,22.90
2018-09-20T10:23:46.735Z,23.00
2018-09-20T10:26:17.284Z,23.10
2018-09-20T10:28:47.697Z,23.20
2018-09-20T10:31:18.084Z,23.30
2018-09-20T10:33:48.733Z,23.40
2018-09-20T10:36:19.123Z,23.50
2018-09-20T10:38:49.509Z,23.60
2018-09-20T10:41:19.946Z,23.70
2018-09-20T10:43:50.358Z,23.80
2018-09-20T10:46:20.731Z,23.90
2018-09-20T10:48:51.133Z,23.90
2018-09-20T10:51:21.520Z,23.90
2018-09-20T10:53:51.939Z,24.00
2018-09-20T10:56:22.312Z,24.00
2018-09-20T10:58:52.720Z,24.00
2018-09-20T11:01:23.129Z,24.10
2018-09-20T11:03:53.520Z,24.10
2018-09-20T11:06:24.280Z,24.10
2018-09-20T11:08:54.700Z,24.20
2018-09-20T11:11:25.099Z,24.30
2018-09-20T11:13:55.509Z,24.30
2018-09-20T11:16:25.890Z,24.40
2018-09-20T11:18:56.289Z,24.50
2018-09-20T11:21:26.708Z,24.60
2018-09-20T11:23:57.109Z,24.60
2018-09-20T11:26:27.513Z,24.70
2018-09-20T11:28:57.923Z,24.80
2018-09-20T11:31:28.292Z,24.80
2018-09-20T11:33:58.697Z,24.90
2018-09-20T11:36:29.070Z,25.00
2018-09-20T11:38:59.497Z,25.00
2018-09-20T11:41:29.877Z,25.10
2018-09-20T11:44:00.277Z,25.10
2018-09-20T11:46:30.754Z,25.20
2018-09-20T11:49:01.321Z,25.20
2018-09-20T11:51:31.720Z,25.40
2018-09-20T11:54:02.389Z,25.40
2018-09-20T11:56:32.792Z,25.50
2018-09-20T11:59:03.557Z,25.60
2018-09-20T12:01:33.973Z,25.60
2018-09-20T12:04:04.381Z,25.60
2018-09-20T12:06:34.788Z,25.70
2018-09-20T12:09:06.505Z,25.80
2018-09-20T12:11:36.918Z,25.90
2018-09-20T12:14:07.325Z,25.90
2018-09-20T12:16:37.725Z,25.90
2018-09-20T12:19:08.140Z,26.00
2018-09-20T12:21:38.568Z,26.10
2018-09-20T12:24:08.997Z,26.20
2018-09-20T12:26:39.407Z,26.20
2018-09-20T12:29:10.027Z,26.20
2018-09-20T12:31:40.440Z,26.30
2018-09-20T12:34:11.048Z,26.30
2018-09-20T12:36:41.425Z,26.30
2018-09-20T12:39:13.913Z,26.40
2018-09-20T12:41:44.298Z,26.50
2018-09-20T12:44:14.708Z,26.60
2018-09-20T12:46:51.948Z,26.60
2018-09-20T12:49:22.318Z,26.60
2018-09-20T12:51:52.800Z,26.70
2018-09-20T12:54:23.156Z,26.70
2018-09-20T12:56:53.586Z,26.70
2018-09-20T12:59:23.989Z,26.70
2018-09-20T13:01:54.387Z,26.70
2018-09-20T13:04:25.233Z,26.70
2018-09-20T13:06:55.612Z,26.70
2018-09-20T13:09:26.065Z,26.80
2018-09-20T13:11:56.780Z,26.80
2018-09-20T13:14:27.200Z,26.80
2018-09-20T13:16:57.583Z,26.90
2018-09-20T13:19:27.976Z,26.90
2018-09-20T13:21:58.374Z,26.90
2018-09-20T13:24:28.774Z,26.90
2018-09-20T13:26:59.204Z,26.90
2018-09-20T13:29:29.601Z,26.90
2018-09-20T13:32:00.155Z,26.90
2018-09-20T13:34:30.712Z,26.90
2018-09-20T13:37:01.164Z,27.00
2018-09-20T13:39:31.741Z,27.00
2018-09-20T13:42:02.160Z,27.10
2018-09-20T13:44:32.549Z,27.10
2018-09-20T13:47:02.999Z,27.10
2018-09-20T13:49:33.383Z,27.10
2018-09-20T13:52:04.137Z,27.20
2018-09-20T13:54:34.532Z,27.20
2018-09-20T13:57:05.333Z,27.20
2018-09-20T13:59:35.693Z,27.20
2018-09-20T14:02:06.299Z,27.30
2018-09-20T14:04:36.690Z,27.20
2018-09-20T14:07:07.110Z,27.20
2018-09-20T14:09:37.492Z,27.30
2018-09-20T14:12:07.912Z,27.20
2018-09-20T14:14:38.300Z,27.30
2018-09-20T14:17:08.712Z,27.30
2018-09-20T14:19:39.080Z,27.40
2018-09-20T14:22:09.557Z,27.40
2018-09-20T14:24:39.934Z,27.30
2018-09-20T14:27:10.453Z,27.30
2018-09-20T14:29:40.874Z,27.30
2018-09-20T14:32:11.996Z,27.20
2018-09-20T14:34:42.413Z,27.30
2018-09-20T14:37:12.789Z,27.20
2018-09-20T14:39:43.188Z,27.20
2018-09-20T14:42:13.583Z,27.20
2018-09-20T14:44:43.984Z,27.30
2018-09-20T14:47:14.369Z,27.20
2018-09-20T14:49:44.770Z,27.30
2018-09-20T14:52:15.141Z,27.30
2018-09-20T14:54:45.550Z,27.20
2018-09-20T14:57:15.961Z,27.20
2018-09-20T14:59:46.361Z,27.20
2018-09-20T15:02:16.770Z,27.20
2018-09-20T15:04:47.353Z,27.20
2018-09-20T15:07:17.763Z,27.20
2018-09-20T15:09:48.145Z,27.10
2018-09-20T15:12:18.573Z,27.10
2018-09-20T15:14:48.933Z,27.10
2018-09-20T15:17:19.343Z,27.20
2018-09-20T15:19:49.765Z,27.20
2018-09-20T15:22:20.181Z,27.10
2018-09-20T15:24:50.710Z,27.10
2018-09-20T15:27:21.240Z,27.10
2018-09-20T15:29:52.142Z,27.00
2018-09-20T15:32:22.516Z,27.00
2018-09-20T15:34:53.196Z,27.00
2018-09-20T15:37:23.573Z,26.90
2018-09-20T15:39:53.985Z,26.80
2018-09-20T15:42:24.621Z,26.70
2018-09-20T15:44:55.049Z,26.70
2018-09-20T15:47:25.456Z,26.60
2018-09-20T15:49:56.061Z,26.60
2018-09-20T15:52:26.424Z,26.50
2018-09-20T15:54:56.834Z,26.40
2018-09-20T15:57:27.195Z,26.40
2018-09-20T15:59:57.609Z,26.40
2018-09-20T16:02:28.026Z,26.30
2018-09-20T16:04:58.437Z,26.30
2018-09-20T16:07:28.850Z,26.30
2018-09-20T16:09:59.248Z,26.20
2018-09-20T16:12:29.996Z,26.10
2018-09-20T16:15:00.409Z,26.10
2018-09-20T16:17:30.776Z,26.00
2018-09-20T16:20:01.214Z,26.00
2018-09-20T16:22:31.625Z,25.90
2018-09-20T16:25:02.260Z,25.90
2018-09-20T16:27:32.636Z,25.90
2018-09-20T16:31:14.311Z,25.90
2018-09-20T16:34:01.880Z,25.80
2018-09-20T16:36:43.179Z,25.70
2018-09-20T16:39:17.637Z,25.60
2018-09-20T16:41:49.885Z,25.50
2018-09-20T16:44:20.277Z,25.40
2018-09-20T16:46:50.673Z,25.30
2018-09-20T16:49:21.033Z,25.20
2018-09-20T16:51:51.429Z,25.20
2018-09-20T16:54:21.815Z,25.20
2018-09-20T16:56:52.235Z,25.10
2018-09-20T16:59:22.600Z,25.00
2018-09-20T17:01:52.997Z,25.00
2018-09-20T17:04:23.366Z,24.90
2018-09-20T17:06:53.785Z,24.80
2018-09-20T17:09:24.160Z,24.70
2018-09-20T17:11:54.568Z,24.70
2018-09-20T17:14:24.969Z,24.60
2018-09-20T17:16:55.544Z,24.40
2018-09-20T17:19:25.978Z,24.40
2018-09-20T17:21:56.429Z,24.30
2018-09-20T17:24:26.813Z,24.20
2018-09-20T17:26:57.236Z,24.10
2018-09-20T17:29:27.628Z,23.90
2018-09-20T17:31:58.037Z,23.90
2018-09-20T17:34:28.751Z,23.80
2018-09-20T17:37:00.644Z,23.70
2018-09-20T17:39:32.466Z,23.60
2018-09-20T17:42:03.402Z,23.50
2018-09-20T17:44:33.792Z,23.40
2018-09-20T17:47:04.180Z,23.30
2018-09-20T17:49:34.596Z,23.20
2018-09-20T17:52:05.466Z,23.20
2018-09-20T17:54:37.058Z,23.10
2018-09-20T17:57:08.256Z,23.00
2018-09-20T17:59:38.622Z,22.90
2018-09-20T18:02:09.027Z,22.80
2018-09-20T18:04:39.410Z,22.70
2018-09-20T18:07:09.817Z,22.60
2018-09-20T18:09:40.217Z,22.50
2018-09-20T18:12:10.645Z,22.40
2018-09-20T18:14:41.058Z,22.40
2018-09-20T18:17:11.429Z,22.30
2018-09-20T18:19:41.840Z,22.20
2018-09-20T18:22:12.254Z,22.10
2018-09-20T18:24:42.659Z,22.10
2018-09-20T18:27:13.056Z,22.00
2018-09-20T18:29:43.469Z,21.90
2018-09-20T18:32:13.884Z,21.90
2018-09-20T18:34:44.281Z,21.80
2018-09-20T18:37:14.661Z,21.70
2018-09-20T18:39:45.056Z,21.60
2018-09-20T18:42:15.471Z,21.60
2018-09-20T18:44:46.069Z,21.50
2018-09-20T18:47:16.449Z,21.40
2018-09-20T18:49:46.857Z,21.30
2018-09-20T18:52:17.412Z,21.30
2018-09-20T18:54:47.815Z,21.20
2018-09-20T18:57:18.196Z,21.10
2018-09-20T18:59:48.601Z,21.00
2018-09-20T19:02:19.002Z,21.00
2018-09-20T19:04:49.372Z,20.90
2018-09-20T19:07:19.810Z,20.90
2018-09-20T19:09:50.433Z,20.80
2018-09-20T19:12:20.823Z,20.80
2018-09-20T19:14:51.206Z,20.70
2018-09-20T19:17:21.784Z,20.70
2018-09-20T19:19:52.161Z,20.60
2018-09-20T19:22:23.080Z,20.60
2018-09-20T19:24:53.469Z,20.50
2018-09-20T19:27:23.907Z,20.50
2018-09-20T19:29:54.451Z,20.40
2018-09-20T19:32:24.847Z,20.40
2018-09-20T19:34:55.257Z,20.30
2018-09-20T19:37:25.832Z,20.30
2018-09-20T19:39:56.206Z,20.20
2018-09-20T19:42:26.633Z,20.30
2018-09-20T19:44:57.028Z,20.20
2018-09-20T19:47:27.433Z,20.20
2018-09-20T19:49:57.819Z,20.20
2018-09-20T19:52:28.230Z,20.10
2018-09-20T19:54:58.655Z,20.10
2018-09-20T19:57:29.220Z,20.10
2018-09-20T19:59:59.596Z,20.10
2018-09-20T20:02:30.009Z,20.00
2018-09-20T20:05:00.880Z,20.00
2018-09-20T20:07:31.251Z,20.00
2018-09-20T20:10:01.907Z,20.00
2018-09-20T20:12:32.522Z,20.00
2018-09-20T20:15:03.644Z,19.90
2018-09-20T20:17:34.861Z,19.90
2018-09-20T20:20:05.976Z,19.90
2018-09-20T20:22:37.902Z,19.90
2018-09-20T20:25:08.891Z,19.90
2018-09-20T20:27:39.549Z,19.90
2018-09-20T20:30:10.661Z,19.90
2018-09-20T20:32:41.202Z,19.80
2018-09-20T20:35:12.156Z,19.80
2018-09-20T20:37:42.868Z,19.80
2018-09-20T20:40:13.565Z,19.80
2018-09-20T20:42:44.263Z,19.80
2018-09-20T20:45:14.953Z,19.80
2018-09-20T20:47:45.639Z,19.80
2018-09-20T20:50:16.067Z,19.80
2018-09-20T20:52:46.756Z,19.80
2018-09-20T20:55:17.441Z,19.80
2018-09-20T20:57:48.126Z,19.70
2018-09-20T21:00:18.807Z,19.70
2018-09-20T21:02:49.183Z,19.70
2018-09-20T21:05:19.864Z,19.70
2018-09-20T21:07:50.236Z,19.70
2018-09-20T21:10:20.915Z,19.60
2018-09-20T21:12:51.753Z,19.60
2018-09-20T21:15:22.440Z,19.60
2018-09-20T21:17:53.139Z,19.60
2018-09-20T21:20:23.838Z,19.60
2018-09-20T21:22:54.517Z,19.60
2018-09-20T21:25:25.177Z,19.60
2018-09-20T21:27:55.913Z,19.60
2018-09-20T21:30:26.580Z,19.50
2018-09-20T21:32:57.281Z,19.50
2018-09-20T21:35:28.076Z,19.50
2018-09-20T21:37:58.761Z,19.40
2018-09-20T21:40:29.421Z,19.40
2018-09-20T21:43:00.117Z,19.30
2018-09-20T21:45:30.915Z,19.30
2018-09-20T21:48:01.614Z,19.30
2018-09-20T21:50:32.288Z,19.30
2018-09-20T21:53:02.729Z,19.20
2018-09-20T21:55:33.384Z,19.20
2018-09-20T21:58:04.438Z,19.10
2018-09-20T22:00:35.157Z,19.10
2018-09-20T22:03:05.844Z,19.10
2018-09-20T22:05:36.536Z,19.10
2018-09-20T22:08:07.383Z,19.00
2018-09-20T22:10:37.993Z,19.00
2018-09-20T22:13:08.661Z,18.90
2018-09-20T22:15:39.344Z,18.90
2018-09-20T22:18:10.037Z,18.90
2018-09-20T22:20:40.693Z,18.90
2018-09-20T22:23:11.436Z,18.80
2018-09-20T22:25:42.093Z,18.80
2018-09-20T22:28:12.793Z,18.70
2018-09-20T22:30:43.465Z,18.70
2018-09-20T22:33:14.148Z,18.60
2018-09-20T22:35:44.851Z,18.60
2018-09-20T22:38:15.700Z,18.60
2018-09-20T22:40:46.360Z,18.50
2018-09-20T22:43:17.047Z,18.50
2018-09-20T22:45:47.737Z,18.40
2018-09-20T22:48:18.448Z,18.40
2018-09-20T22:50:49.513Z,18.40
2018-09-20T22:53:20.200Z,18.40
2018-09-20T22:55:50.894Z,18.40
2018-09-20T22:58:21.597Z,18.40
2018-09-20T23:00:52.273Z,18.30
2018-09-20T23:03:22.970Z,18.40
2018-09-20T23:05:53.693Z,18.30
2018-09-20T23:08:24.361Z,18.30
2018-09-20T23:10:55.056Z,18.30
2018-09-20T23:13:25.716Z,18.30
2018-09-20T23:15:56.401Z,18.30
2018-09-20T23:18:27.102Z,18.30
2018-09-20T23:20:57.788Z,18.30
2018-09-20T23:23:28.485Z,18.40
2018-09-20T23:25:59.178Z,18.40
2018-09-20T23:28:29.884Z,18.40
2018-09-20T23:31:00.560Z,18.40
2018-09-20T23:33:31.772Z,18.50
2018-09-20T23:36:02.439Z,18.50
2018-09-20T23:38:33.134Z,18.50
2018-09-20T23:41:03.797Z,18.60
2018-09-20T23:43:34.484Z,18.60
2018-09-20T23:46:05.457Z,18.60
2018-09-20T23:48:36.139Z,18.70
2018-09-20T23:51:06.857Z,18.70
2018-09-20T23:53:37.553Z,18.60
2018-09-20T23:56:08.196Z,18.70
2018-09-20T23:58:38.900Z,18.70
